createdAt,value
2018-06-27T00:01:59.792Z,21.90
2018-06-27T00:04:28.265Z,22.70
2018-06-27T00:06:56.681Z,23.70
2018-06-27T00:09:25.092Z,19.63
2018-06-27T00:11:53.513Z,21.23
2018-06-27T00:14:21.929Z,20.07
2018-06-27T00:16:50.396Z,18.47
2018-06-27T00:19:18.916Z,23.03
2018-06-27T00:21:47.374Z,18.87
2018-06-27T00:24:15.796Z,20.70
2018-06-27T00:26:44.230Z,19.37
2018-06-27T00:29:12.647Z,22.20
2018-06-27T00:31:41.060Z,21.40
2018-06-27T00:34:09.517Z,20.80
2018-06-27T00:36:37.946Z,20.67
2018-06-27T00:39:08.421Z,20.63
2018-06-27T00:41:36.854Z,23.03
2018-06-27T00:44:05.446Z,20.63
2018-06-27T00:46:34.148Z,20.20
2018-06-27T00:49:02.716Z,23.40
2018-06-27T00:51:31.179Z,22.73
2018-06-27T00:54:04.986Z,19.80
2018-06-27T00:56:33.425Z,20.37
2018-06-27T00:59:01.842Z,18.37
2018-06-27T01:01:30.262Z,23.67
2018-06-27T01:03:58.696Z,19.57
2018-06-27T01:06:27.135Z,21.17
2018-06-27T01:08:55.617Z,22.13
2018-06-27T01:11:24.295Z,23.30
2018-06-27T01:13:52.754Z,22.07
2018-06-27T01:16:21.285Z,19.07
2018-06-27T01:18:49.713Z,18.43
2018-06-27T01:21:24.599Z,20.50
2018-06-27T01:23:53.024Z,20.20
2018-06-27T01:26:21.453Z,19.30
2018-06-27T01:28:49.903Z,17.97
2018-06-27T01:31:18.946Z,24.67
2018-06-27T01:33:47.370Z,19.40
2018-06-27T01:36:15.781Z,21.13
2018-06-27T01:38:44.204Z,23.23
2018-06-27T01:41:12.601Z,21.37
2018-06-27T01:43:41.074Z,19.87
2018-06-27T01:46:09.731Z,19.30
2018-06-27T01:48:38.199Z,21.20
2018-06-27T01:51:06.690Z,19.33
2018-06-27T01:53:37.480Z,21.43
2018-06-27T01:56:07.101Z,22.97
2018-06-27T01:58:35.517Z,23.53
2018-06-27T02:01:03.962Z,23.33
2018-06-27T02:03:32.443Z,23.33
2018-06-27T02:06:00.849Z,22.77
2018-06-27T02:08:29.260Z,24.73
2018-06-27T02:10:57.870Z,24.83
2018-06-27T02:13:26.304Z,24.93
2018-06-27T02:15:55.268Z,24.13
2018-06-27T02:18:23.759Z,23.83
2018-06-27T02:20:52.210Z,21.47
2018-06-27T02:23:20.850Z,22.93
2018-06-27T02:25:49.327Z,23.27
2018-06-27T02:28:17.796Z,23.40
2018-06-27T02:30:46.237Z,18.57
2018-06-27T02:33:19.902Z,19.70
2018-06-27T02:35:48.981Z,22.17
2018-06-27T02:38:17.469Z,21.57
2018-06-27T02:40:45.874Z,25.50
2018-06-27T02:43:14.569Z,23.63
2018-06-27T02:45:43.157Z,21.20
2018-06-27T02:48:11.840Z,21.57
2018-06-27T02:50:40.526Z,20.63
2018-06-27T02:53:09.263Z,22.07
2018-06-27T02:55:37.861Z,18.67
2018-06-27T02:58:06.546Z,21.57
2018-06-27T03:00:35.286Z,24.67
2018-06-27T03:03:04.119Z,21.10
2018-06-27T03:05:32.764Z,22.27
2018-06-27T03:08:01.449Z,17.73
2018-06-27T03:10:30.999Z,21.67
2018-06-27T03:12:59.780Z,19.97
2018-06-27T03:15:28.356Z,20.00
2018-06-27T03:17:57.127Z,17.57
2018-06-27T03:20:25.641Z,18.10
2018-06-27T03:22:54.260Z,16.30
2018-06-27T03:25:22.984Z,18.03
2018-06-27T03:27:51.532Z,18.40
2018-06-27T03:30:20.214Z,17.23
2018-06-27T03:32:49.004Z,17.97
2018-06-27T03:35:17.478Z,16.60
2018-06-27T03:37:46.066Z,16.93
2018-06-27T03:40:14.881Z,16.70
2018-06-27T03:42:43.533Z,14.27
2018-06-27T03:45:12.105Z,14.73
2018-06-27T03:47:41.326Z,14.17
2018-06-27T03:50:09.896Z,16.40
2018-06-27T03:52:45.547Z,13.60
2018-06-27T03:55:14.992Z,13.43
2018-06-27T03:57:43.888Z,14.30
2018-06-27T04:00:12.818Z,11.97
2018-06-27T04:02:41.447Z,12.00
2018-06-27T04:05:10.218Z,12.83
2018-06-27T04:07:39.237Z,9.57
2018-06-27T04:10:09.175Z,9.70
2018-06-27T04:12:38.018Z,9.30
2018-06-27T04:15:07.024Z,8.70
2018-06-27T04:17:35.638Z,8.50
2018-06-27T04:20:04.333Z,9.53
2018-06-27T04:22:34.235Z,9.07
2018-06-27T04:25:03.199Z,10.40
2018-06-27T04:27:32.524Z,8.20
2018-06-27T04:30:02.562Z,8.83
2018-06-27T04:32:31.089Z,10.73
2018-06-27T04:35:00.415Z,8.87
2018-06-27T04:37:29.146Z,8.53
2018-06-27T04:39:58.754Z,8.87
2018-06-27T04:42:27.627Z,10.00
2018-06-27T04:44:56.365Z,9.33
2018-06-27T04:47:25.131Z,7.40
2018-06-27T04:49:53.991Z,8.40
2018-06-27T04:52:22.829Z,8.17
2018-06-27T04:54:51.725Z,9.03
2018-06-27T04:57:20.482Z,8.87
2018-06-27T04:59:49.068Z,10.60
2018-06-27T05:02:18.140Z,12.10
2018-06-27T05:04:46.821Z,11.27
2018-06-27T05:07:16.403Z,12.93
2018-06-27T05:09:45.923Z,12.63
2018-06-27T05:12:14.763Z,9.47
2018-06-27T05:14:43.568Z,10.77
2018-06-27T05:17:12.495Z,9.37
2018-06-27T05:19:43.646Z,10.87
2018-06-27T05:22:14.247Z,9.20
2018-06-27T05:24:43.356Z,12.10
2018-06-27T05:27:11.926Z,8.80
2018-06-27T05:29:40.439Z,9.57
2018-06-27T05:32:09.097Z,9.33
2018-06-27T05:34:37.731Z,14.00
2018-06-27T05:37:06.732Z,10.77
2018-06-27T05:39:35.381Z,10.80
2018-06-27T05:42:03.951Z,9.43
2018-06-27T05:44:32.414Z,9.70
2018-06-27T05:47:01.113Z,11.13
2018-06-27T05:49:29.755Z,8.63
2018-06-27T05:51:58.429Z,12.10
2018-06-27T05:54:27.064Z,10.93
2018-06-27T05:56:55.640Z,12.90
2018-06-27T05:59:24.318Z,10.47
2018-06-27T06:01:52.921Z,10.93
2018-06-27T06:04:21.512Z,13.00
2018-06-27T06:06:50.000Z,9.30
2018-06-27T06:09:18.613Z,7.83
2018-06-27T06:11:47.088Z,8.10
2018-06-27T06:14:16.017Z,8.13
2018-06-27T06:16:44.727Z,9.13
2018-06-27T06:19:13.177Z,8.78
2018-06-27T06:21:41.699Z,7.85
2018-06-27T06:24:10.322Z,8.10
2018-06-27T06:26:38.834Z,10.28
2018-06-27T06:29:07.378Z,8.88
2018-06-27T06:31:35.778Z,10.35
2018-06-27T06:34:04.209Z,10.60
2018-06-27T06:36:33.090Z,8.10
2018-06-27T06:39:02.161Z,8.35
2018-06-27T06:41:30.717Z,12.10
2018-06-27T06:43:59.469Z,9.78
2018-06-27T06:46:27.918Z,11.25
2018-06-27T06:48:56.573Z,7.75
2018-06-27T06:51:25.789Z,11.28
2018-06-27T06:53:54.356Z,7.55
2018-06-27T06:56:22.874Z,7.50
2018-06-27T06:58:51.369Z,8.48
2018-06-27T07:01:19.902Z,9.18
2018-06-27T07:03:48.372Z,9.15
2018-06-27T07:06:16.870Z,8.60
2018-06-27T07:08:45.551Z,7.40
2018-06-27T07:11:14.407Z,9.10
2018-06-27T07:13:42.805Z,8.68
2018-06-27T07:16:11.218Z,8.80
2018-06-27T07:18:40.025Z,8.85
2018-06-27T07:21:08.456Z,8.30
2018-06-27T07:23:36.902Z,8.03
2018-06-27T07:26:05.438Z,8.30
2018-06-27T07:28:33.992Z,7.78
2018-06-27T07:31:02.532Z,8.18
2018-06-27T07:33:31.008Z,10.00
2018-06-27T07:35:59.557Z,9.73
2018-06-27T07:38:28.055Z,10.88
2018-06-27T07:40:56.486Z,8.25
2018-06-27T07:43:25.034Z,8.30
2018-06-27T07:45:53.504Z,9.35
2018-06-27T07:48:22.370Z,8.08
2018-06-27T07:50:51.515Z,8.70
2018-06-27T07:53:20.525Z,7.67
2018-06-27T07:55:49.060Z,8.45
2018-06-27T07:58:17.527Z,7.83
2018-06-27T08:00:45.972Z,9.05
2018-06-27T08:03:14.381Z,8.03
2018-06-27T08:05:42.965Z,7.00
2018-06-27T08:08:11.649Z,9.85
2018-06-27T08:10:40.114Z,8.23
2018-06-27T08:13:08.721Z,8.53
2018-06-27T08:15:37.348Z,7.40
2018-06-27T08:18:05.950Z,7.53
2018-06-27T08:20:34.507Z,7.53
2018-06-27T08:23:03.233Z,7.37
2018-06-27T08:25:32.890Z,7.47
2018-06-27T08:28:01.440Z,6.10
2018-06-27T08:30:29.889Z,7.75
2018-06-27T08:32:58.360Z,7.10
2018-06-27T08:35:27.032Z,6.50
2018-06-27T08:37:55.645Z,10.75
2018-06-27T08:40:24.132Z,6.72
2018-06-27T08:42:53.020Z,7.37
2018-06-27T08:45:21.840Z,6.92
2018-06-27T08:47:50.982Z,6.87
2018-06-27T08:50:20.501Z,8.43
2018-06-27T08:52:50.852Z,5.58
2018-06-27T08:55:19.568Z,6.95
2018-06-27T08:57:49.286Z,6.17
2018-06-27T09:00:18.059Z,6.22
2018-06-27T09:02:48.028Z,5.70
2018-06-27T09:05:16.885Z,6.95
2018-06-27T09:07:45.641Z,7.58
2018-06-27T09:10:14.339Z,8.68
2018-06-27T09:12:43.336Z,6.50
2018-06-27T09:15:12.190Z,10.95
2018-06-27T09:17:42.038Z,7.12
2018-06-27T09:20:10.800Z,6.58
2018-06-27T09:22:39.817Z,14.50
2018-06-27T09:25:08.489Z,8.10
2018-06-27T09:27:37.132Z,8.08
2018-06-27T09:30:07.131Z,8.35
2018-06-27T09:32:35.834Z,9.75
2018-06-27T09:35:04.573Z,7.80
2018-06-27T09:37:33.581Z,6.25
2018-06-27T09:40:02.697Z,9.35
2018-06-27T09:42:31.634Z,8.38
2018-06-27T09:45:00.471Z,8.13
2018-06-27T09:47:29.342Z,6.55
2018-06-27T09:49:58.260Z,6.95
2018-06-27T09:52:27.654Z,8.00
2018-06-27T09:54:57.881Z,7.62
2018-06-27T09:57:26.908Z,7.25
2018-06-27T09:59:55.682Z,5.75
2018-06-27T10:02:24.619Z,5.12
2018-06-27T10:04:54.502Z,4.12
2018-06-27T10:07:23.498Z,7.47
2018-06-27T10:09:52.883Z,3.80
2018-06-27T10:12:22.157Z,6.45
2018-06-27T10:14:51.529Z,4.40
2018-06-27T10:17:20.721Z,4.53
2018-06-27T10:19:49.639Z,7.35
2018-06-27T10:22:18.792Z,12.73
2018-06-27T10:24:47.790Z,6.00
2018-06-27T10:27:16.395Z,8.73
2018-06-27T10:29:45.488Z,7.50
2018-06-27T10:32:14.505Z,7.58
2018-06-27T10:34:43.379Z,6.95
2018-06-27T10:37:12.643Z,6.33
2018-06-27T10:39:41.473Z,7.03
2018-06-27T10:42:11.279Z,6.05
2018-06-27T10:44:40.553Z,6.80
2018-06-27T10:47:09.410Z,5.53
2018-06-27T10:49:38.564Z,6.37
2018-06-27T10:52:07.691Z,4.37
2018-06-27T10:54:43.777Z,8.55
2018-06-27T10:57:12.910Z,5.22
2018-06-27T10:59:41.893Z,5.17
2018-06-27T11:02:10.716Z,5.90
2018-06-27T11:04:39.369Z,7.97
2018-06-27T11:07:08.293Z,3.87
2018-06-27T11:09:37.165Z,6.07
2018-06-27T11:12:05.763Z,5.03
2018-06-27T11:14:34.710Z,6.20
2018-06-27T11:17:03.678Z,5.73
2018-06-27T11:19:32.363Z,5.93
2018-06-27T11:22:01.383Z,3.77
2018-06-27T11:24:30.033Z,4.70
2018-06-27T11:26:58.785Z,4.20
2018-06-27T11:29:28.353Z,4.57
2018-06-27T11:31:57.133Z,6.43
2018-06-27T11:34:26.132Z,3.90
2018-06-27T11:36:54.761Z,4.00
2018-06-27T11:39:24.633Z,3.87
2018-06-27T11:41:53.526Z,2.83
2018-06-27T11:44:22.262Z,5.33
2018-06-27T11:46:51.183Z,5.13
2018-06-27T11:49:19.694Z,5.40
2018-06-27T11:51:48.528Z,6.33
2018-06-27T11:54:16.950Z,3.30
2018-06-27T11:56:45.438Z,5.23
2018-06-27T11:59:13.961Z,2.50
2018-06-27T12:01:42.377Z,3.00
2018-06-27T12:04:10.961Z,5.63
2018-06-27T12:06:39.398Z,3.13
2018-06-27T12:09:09.334Z,3.37
2018-06-27T12:11:37.839Z,3.03
2018-06-27T12:14:06.357Z,1.87
2018-06-27T12:16:34.925Z,3.97
2018-06-27T12:19:03.423Z,4.70
2018-06-27T12:21:31.902Z,2.80
2018-06-27T12:24:00.407Z,5.53
2018-06-27T12:26:28.917Z,4.80
2018-06-27T12:28:57.599Z,3.07
2018-06-27T12:31:26.059Z,3.37
2018-06-27T12:33:54.527Z,3.87
2018-06-27T12:36:23.392Z,2.80
2018-06-27T12:38:51.824Z,1.73
2018-06-27T12:41:20.293Z,4.10
2018-06-27T12:43:48.759Z,2.97
2018-06-27T12:46:17.204Z,1.63
2018-06-27T12:48:45.689Z,3.47
2018-06-27T12:51:14.141Z,4.53
2018-06-27T12:53:42.658Z,3.73
2018-06-27T12:56:11.218Z,2.63
2018-06-27T12:58:40.336Z,2.70
2018-06-27T13:01:08.781Z,5.17
2018-06-27T13:03:37.327Z,3.90
2018-06-27T13:06:06.000Z,5.17
2018-06-27T13:08:34.481Z,3.37
2018-06-27T13:11:03.097Z,7.40
2018-06-27T13:13:31.682Z,3.83
2018-06-27T13:16:00.247Z,4.00
2018-06-27T13:18:28.709Z,3.67
2018-06-27T13:20:57.345Z,4.83
2018-06-27T13:23:25.869Z,4.63
2018-06-27T13:25:54.324Z,3.60
2018-06-27T13:28:23.377Z,5.30
2018-06-27T13:30:52.391Z,6.57
2018-06-27T13:33:20.834Z,4.90
2018-06-27T13:35:49.337Z,5.00
2018-06-27T13:38:18.035Z,4.33
2018-06-27T13:40:46.506Z,7.10
2018-06-27T13:43:15.085Z,5.03
2018-06-27T13:45:43.505Z,4.10
2018-06-27T13:48:11.975Z,4.97
2018-06-27T13:50:40.600Z,4.63
2018-06-27T13:53:09.117Z,10.17
2018-06-27T13:55:37.617Z,3.97
2018-06-27T13:58:07.312Z,4.77
2018-06-27T14:00:35.809Z,4.73
2018-06-27T14:03:04.268Z,5.13
2018-06-27T14:05:32.819Z,4.00
2018-06-27T14:08:02.073Z,5.30
2018-06-27T14:10:30.576Z,4.87
2018-06-27T14:12:59.150Z,5.43
2018-06-27T14:15:27.682Z,3.67
2018-06-27T14:17:56.196Z,3.33
2018-06-27T14:20:24.809Z,3.30
2018-06-27T14:22:53.267Z,3.10
2018-06-27T14:25:22.160Z,6.67
2018-06-27T14:27:50.721Z,6.63
2018-06-27T14:30:19.217Z,4.23
2018-06-27T14:32:47.736Z,5.47
2018-06-27T14:35:16.451Z,4.20
2018-06-27T14:37:44.959Z,7.17
2018-06-27T14:40:13.632Z,2.80
2018-06-27T14:42:42.548Z,2.67
2018-06-27T14:45:11.113Z,2.90
2018-06-27T14:47:39.689Z,3.57
2018-06-27T14:50:08.296Z,5.40
2018-06-27T14:52:36.834Z,4.77
2018-06-27T14:55:08.193Z,4.13
2018-06-27T14:57:37.376Z,3.60
2018-06-27T15:00:07.576Z,4.60
2018-06-27T15:02:36.073Z,3.07
2018-06-27T15:05:04.672Z,3.57
2018-06-27T15:07:33.519Z,5.30
2018-06-27T15:10:02.122Z,2.70
2018-06-27T15:12:31.305Z,3.13
2018-06-27T15:14:59.833Z,4.87
2018-06-27T15:17:28.295Z,3.37
2018-06-27T15:19:57.662Z,4.83
2018-06-27T15:22:26.261Z,4.37
2018-06-27T15:24:54.982Z,4.03
2018-06-27T15:27:24.319Z,1.87
2018-06-27T15:29:53.126Z,2.07
2018-06-27T15:32:21.619Z,3.03
2018-06-27T15:34:50.253Z,2.97
2018-06-27T15:37:18.747Z,2.50
2018-06-27T15:39:47.342Z,2.10
2018-06-27T15:42:15.783Z,3.17
2018-06-27T15:44:44.280Z,2.03
2018-06-27T15:47:13.020Z,4.50
2018-06-27T15:49:41.590Z,2.73
2018-06-27T15:52:10.127Z,3.17
2018-06-27T15:54:39.409Z,2.63
2018-06-27T15:57:07.812Z,4.27
2018-06-27T15:59:36.569Z,3.43
2018-06-27T16:02:05.099Z,3.53
2018-06-27T16:04:33.677Z,3.83
2018-06-27T16:07:02.141Z,3.17
2018-06-27T16:09:30.687Z,5.53
2018-06-27T16:11:59.196Z,2.90
2018-06-27T16:14:28.594Z,2.73
2018-06-27T16:16:57.583Z,3.80
2018-06-27T16:19:26.912Z,5.20
2018-06-27T16:21:55.904Z,2.80
2018-06-27T16:24:25.299Z,9.70
2018-06-27T16:26:53.741Z,4.30
2018-06-27T16:29:23.039Z,5.07
2018-06-27T16:31:52.066Z,7.53
2018-06-27T16:34:20.539Z,6.10
2018-06-27T16:36:49.109Z,3.40
2018-06-27T16:39:17.633Z,3.50
2018-06-27T16:41:46.066Z,5.23
2018-06-27T16:44:14.627Z,3.50
2018-06-27T16:46:43.118Z,3.73
2018-06-27T16:49:11.593Z,5.30
2018-06-27T16:51:40.997Z,3.70
2018-06-27T16:54:09.453Z,4.03
2018-06-27T16:56:37.910Z,3.23
2018-06-27T16:59:06.614Z,2.80
2018-06-27T17:01:35.196Z,4.87
2018-06-27T17:04:04.656Z,4.97
2018-06-27T17:06:33.773Z,3.73
2018-06-27T17:09:02.285Z,3.57
2018-06-27T17:11:30.819Z,4.50
2018-06-27T17:13:59.309Z,4.60
2018-06-27T17:16:27.793Z,3.60
2018-06-27T17:18:56.788Z,6.10
2018-06-27T17:21:25.283Z,3.30
2018-06-27T17:23:53.777Z,6.50
2018-06-27T17:26:22.507Z,3.33
2018-06-27T17:28:50.955Z,4.23
2018-06-27T17:31:19.688Z,3.87
2018-06-27T17:33:47.965Z,4.27
2018-06-27T17:36:16.657Z,2.33
2018-06-27T17:38:45.118Z,3.10
2018-06-27T17:41:13.955Z,2.67
2018-06-27T17:43:42.450Z,2.77
2018-06-27T17:46:10.930Z,2.57
2018-06-27T17:48:40.336Z,3.40
2018-06-27T17:51:08.793Z,2.07
2018-06-27T17:53:37.378Z,3.67
2018-06-27T17:56:05.827Z,4.83
2018-06-27T17:58:34.377Z,3.97
2018-06-27T18:01:02.962Z,5.37
2018-06-27T18:03:31.495Z,4.00
2018-06-27T18:05:59.958Z,2.33
2018-06-27T18:08:28.427Z,2.07
2018-06-27T18:10:56.907Z,3.60
2018-06-27T18:13:26.779Z,3.97
2018-06-27T18:15:55.493Z,2.83
2018-06-27T18:18:24.921Z,1.60
2018-06-27T18:20:53.394Z,2.93
2018-06-27T18:23:22.085Z,1.40
2018-06-27T18:25:50.654Z,1.60
2018-06-27T18:28:19.206Z,4.03
2018-06-27T18:30:47.789Z,2.93
2018-06-27T18:33:16.543Z,4.10
2018-06-27T18:35:46.384Z,2.53
2018-06-27T18:38:15.063Z,2.73
2018-06-27T18:40:43.526Z,2.27
2018-06-27T18:43:12.026Z,2.57
2018-06-27T18:45:40.522Z,1.60
2018-06-27T18:48:09.105Z,3.53
2018-06-27T18:50:37.620Z,3.73
2018-06-27T18:53:06.279Z,3.03
2018-06-27T18:55:34.884Z,3.57
2018-06-27T18:58:03.652Z,1.60
2018-06-27T19:00:32.329Z,2.00
2018-06-27T19:03:00.875Z,2.80
2018-06-27T19:05:29.857Z,2.17
2018-06-27T19:07:58.329Z,2.40
2018-06-27T19:10:26.790Z,3.33
2018-06-27T19:12:55.494Z,3.87
2018-06-27T19:15:24.452Z,3.97
2018-06-27T19:17:53.017Z,4.57
2018-06-27T19:20:21.638Z,2.33
2018-06-27T19:22:50.850Z,2.07
2018-06-27T19:25:19.359Z,2.23
2018-06-27T19:27:47.991Z,2.00
2018-06-27T19:30:16.605Z,4.70
2018-06-27T19:32:45.147Z,3.03
2018-06-27T19:35:13.689Z,2.20
2018-06-27T19:37:42.236Z,2.03
2018-06-27T19:40:10.774Z,2.97
2018-06-27T19:42:39.254Z,2.13
2018-06-27T19:45:08.268Z,1.77
2018-06-27T19:47:36.768Z,2.20
2018-06-27T19:50:05.268Z,2.43
2018-06-27T19:52:34.452Z,1.87
2018-06-27T19:55:02.989Z,2.73
2018-06-27T19:57:31.544Z,1.73
2018-06-27T20:00:00.124Z,4.27
2018-06-27T20:02:28.981Z,2.77
2018-06-27T20:04:57.426Z,2.23
2018-06-27T20:07:26.145Z,3.93
2018-06-27T20:09:54.621Z,2.83
2018-06-27T20:12:23.349Z,3.97
2018-06-27T20:14:51.803Z,1.93
2018-06-27T20:17:20.257Z,1.33
2018-06-27T20:19:48.952Z,2.60
2018-06-27T20:22:17.424Z,2.73
2018-06-27T20:24:45.974Z,2.47
2018-06-27T20:27:14.442Z,2.67
2018-06-27T20:29:42.852Z,2.40
2018-06-27T20:32:11.357Z,4.33
2018-06-27T20:34:39.784Z,4.10
2018-06-27T20:37:08.275Z,1.73
2018-06-27T20:39:37.607Z,1.93
2018-06-27T20:42:06.179Z,3.90
2018-06-27T20:44:34.661Z,3.03
2018-06-27T20:47:03.065Z,2.63
2018-06-27T20:49:31.505Z,3.03
2018-06-27T20:51:59.936Z,1.93
2018-06-27T20:54:28.389Z,2.30
2018-06-27T20:56:57.321Z,2.13
2018-06-27T20:59:25.983Z,2.17
2018-06-27T21:01:54.639Z,3.93
2018-06-27T21:04:23.092Z,2.93
2018-06-27T21:06:51.501Z,3.53
2018-06-27T21:09:19.919Z,3.90
2018-06-27T21:11:48.409Z,3.63
2018-06-27T21:14:16.828Z,2.73
2018-06-27T21:16:45.292Z,3.00
2018-06-27T21:19:13.734Z,4.63
2018-06-27T21:21:42.197Z,1.97
2018-06-27T21:24:10.652Z,2.20
2018-06-27T21:26:39.085Z,1.80
2018-06-27T21:29:07.533Z,2.77
2018-06-27T21:31:36.668Z,3.67
2018-06-27T21:34:05.765Z,3.20
2018-06-27T21:36:34.194Z,3.17
2018-06-27T21:39:02.727Z,2.87
2018-06-27T21:41:31.179Z,2.63
2018-06-27T21:43:59.643Z,1.93
2018-06-27T21:46:28.081Z,1.97
2018-06-27T21:48:56.643Z,2.63
2018-06-27T21:51:25.068Z,2.40
2018-06-27T21:53:53.513Z,2.47
2018-06-27T21:56:21.996Z,1.90
2018-06-27T21:58:50.416Z,2.27
2018-06-27T22:01:19.514Z,1.67
2018-06-27T22:03:48.446Z,2.63
2018-06-27T22:06:16.953Z,2.93
2018-06-27T22:08:45.585Z,4.47
2018-06-27T22:11:14.338Z,2.10
2018-06-27T22:13:43.318Z,2.43
2018-06-27T22:16:13.084Z,3.73
2018-06-27T22:18:42.736Z,1.90
2018-06-27T22:21:11.594Z,3.70
2018-06-27T22:23:42.012Z,2.93
2018-06-27T22:26:11.015Z,3.40
2018-06-27T22:28:39.588Z,3.27
2018-06-27T22:31:08.509Z,1.83
2018-06-27T22:33:38.448Z,2.07
2018-06-27T22:36:07.405Z,2.67
2018-06-27T22:38:36.378Z,2.23
2018-06-27T22:41:05.970Z,4.00
2018-06-27T22:43:34.924Z,2.27
2018-06-27T22:46:03.334Z,2.13
2018-06-27T22:48:31.797Z,2.63
2018-06-27T22:51:00.224Z,2.13
2018-06-27T22:53:28.638Z,2.90
2018-06-27T22:56:00.036Z,2.30
2018-06-27T22:58:28.548Z,3.70
2018-06-27T23:00:57.000Z,3.87
2018-06-27T23:03:25.934Z,3.20
2018-06-27T23:05:54.394Z,3.03
2018-06-27T23:08:23.356Z,2.53
2018-06-27T23:10:51.803Z,3.70
2018-06-27T23:13:20.225Z,2.03
2018-06-27T23:15:48.670Z,2.10
2018-06-27T23:18:17.090Z,2.13
2018-06-27T23:20:45.510Z,2.93
2018-06-27T23:23:13.945Z,3.90
2018-06-27T23:25:42.340Z,2.37
2018-06-27T23:28:10.759Z,3.20
2018-06-27T23:30:39.174Z,1.60
2018-06-27T23:33:07.593Z,3.20
2018-06-27T23:35:36.037Z,3.57
2018-06-27T23:38:04.493Z,7.13
2018-06-27T23:40:32.909Z,3.00
2018-06-27T23:43:01.331Z,1.80
2018-06-27T23:45:29.767Z,2.93
2018-06-27T23:47:58.198Z,2.07
2018-06-27T23:50:26.670Z,2.83
2018-06-27T23:52:55.065Z,4.27
2018-06-27T23:55:23.547Z,2.60
2018-06-27T23:57:51.953Z,4.40
